createdAt,value
2018-11-26T00:01:43.300Z,5.50
2018-11-26T00:04:11.649Z,5.50
2018-11-26T00:06:40.201Z,5.50
2018-11-26T00:09:08.784Z,5.50
2018-11-26T00:11:38.417Z,5.50
2018-11-26T00:14:06.713Z,5.50
2018-11-26T00:16:35.029Z,5.50
2018-11-26T00:19:03.351Z,5.50
2018-11-26T00:21:31.684Z,5.50
2018-11-26T00:23:59.989Z,5.50
2018-11-26T00:26:28.436Z,5.50
2018-11-26T00:28:56.752Z,5.50
2018-11-26T00:31:25.064Z,5.50
2018-11-26T00:33:53.932Z,5.50
2018-11-26T00:36:22.283Z,5.50
2018-11-26T00:38:50.664Z,5.50
2018-11-26T00:41:19.277Z,5.50
2018-11-26T00:43:47.567Z,5.50
2018-11-26T00:46:15.863Z,5.60
2018-11-26T00:48:44.656Z,5.60
2018-11-26T00:51:12.977Z,5.50
2018-11-26T00:53:41.269Z,5.60
2018-11-26T00:56:09.584Z,5.60
2018-11-26T00:58:38.861Z,5.60
2018-11-26T01:01:07.176Z,5.60
2018-11-26T01:03:35.960Z,5.60
2018-11-26T01:06:04.327Z,5.60
2018-11-26T01:08:33.014Z,5.60
2018-11-26T01:11:01.774Z,5.60
2018-11-26T01:13:30.085Z,5.60
2018-11-26T01:15:58.392Z,5.60
2018-11-26T01:18:27.217Z,5.60
2018-11-26T01:20:55.612Z,5.60
2018-11-26T01:23:23.905Z,5.60
2018-11-26T01:25:52.506Z,5.60
2018-11-26T01:28:20.821Z,5.60
2018-11-26T01:30:49.125Z,5.70
2018-11-26T01:33:17.819Z,5.60
2018-11-26T01:35:46.113Z,5.60
2018-11-26T01:38:14.434Z,5.70
2018-11-26T01:40:58.400Z,5.70
2018-11-26T01:43:26.705Z,5.70
2018-11-26T01:45:55.041Z,5.70
2018-11-26T01:48:23.376Z,5.70
2018-11-26T01:50:51.693Z,5.70
2018-11-26T01:53:19.990Z,5.70
2018-11-26T01:55:48.669Z,5.70
2018-11-26T01:58:16.972Z,5.70
2018-11-26T02:00:45.297Z,5.70
2018-11-26T02:03:14.032Z,5.70
2018-11-26T02:05:43.074Z,5.70
2018-11-26T02:08:11.364Z,5.70
2018-11-26T02:10:40.658Z,5.70
2018-11-26T02:13:08.983Z,5.70
2018-11-26T02:15:38.300Z,5.70
2018-11-26T02:18:08.276Z,5.70
2018-11-26T02:20:36.617Z,5.70
2018-11-26T02:23:04.935Z,5.70
2018-11-26T02:25:33.349Z,5.70
2018-11-26T02:28:01.668Z,5.70
2018-11-26T02:30:29.996Z,5.70
2018-11-26T02:32:58.320Z,5.70
2018-11-26T02:35:26.638Z,5.70
2018-11-26T02:37:54.929Z,5.70
2018-11-26T02:40:25.724Z,5.70
2018-11-26T02:42:54.032Z,5.70
2018-11-26T02:45:22.341Z,5.70
2018-11-26T02:47:51.280Z,5.70
2018-11-26T02:50:19.602Z,5.70
2018-11-26T02:52:47.970Z,5.70
2018-11-26T02:55:16.294Z,5.70
2018-11-26T02:57:44.625Z,5.70
2018-11-26T03:00:13.409Z,5.70
2018-11-26T03:02:42.372Z,5.70
2018-11-26T03:05:18.823Z,5.70
2018-11-26T03:07:47.192Z,5.70
2018-11-26T03:10:15.516Z,5.70
2018-11-26T03:12:43.952Z,5.70
2018-11-26T03:15:12.756Z,5.70
2018-11-26T03:17:41.870Z,5.70
2018-11-26T03:20:10.599Z,5.70
2018-11-26T03:22:39.045Z,5.70
2018-11-26T03:25:10.468Z,5.70
2018-11-26T03:27:38.875Z,5.70
2018-11-26T03:30:11.372Z,5.70
2018-11-26T03:32:40.186Z,5.70
2018-11-26T03:35:09.422Z,5.70
2018-11-26T03:37:38.396Z,5.70
2018-11-26T03:40:09.724Z,5.80
2018-11-26T03:42:38.070Z,5.80
2018-11-26T03:45:10.343Z,5.80
2018-11-26T03:47:38.897Z,5.80
2018-11-26T03:50:07.478Z,5.80
2018-11-26T03:52:36.236Z,5.80
2018-11-26T03:55:05.057Z,5.80
2018-11-26T03:57:33.349Z,5.80
2018-11-26T04:00:02.297Z,5.80
2018-11-26T04:02:30.591Z,5.80
2018-11-26T04:04:58.933Z,5.80
2018-11-26T04:07:27.286Z,5.80
2018-11-26T04:09:55.608Z,5.80
2018-11-26T04:12:23.896Z,5.80
2018-11-26T04:14:52.581Z,5.80
2018-11-26T04:17:20.892Z,5.80
2018-11-26T04:19:49.220Z,5.80
2018-11-26T04:22:17.826Z,5.80
2018-11-26T04:24:46.120Z,5.80
2018-11-26T04:27:14.445Z,5.80
2018-11-26T04:29:43.114Z,5.80
2018-11-26T04:32:11.436Z,5.80
2018-11-26T04:34:39.733Z,5.80
2018-11-26T04:37:11.658Z,5.80
2018-11-26T04:39:39.955Z,5.80
2018-11-26T04:42:08.252Z,5.80
2018-11-26T04:44:37.268Z,5.80
2018-11-26T04:47:05.597Z,5.80
2018-11-26T04:49:33.888Z,5.80
2018-11-26T04:52:02.317Z,5.90
2018-11-26T04:54:30.628Z,5.80
2018-11-26T04:56:58.941Z,5.90
2018-11-26T04:59:27.288Z,5.90
2018-11-26T05:01:55.632Z,5.90
2018-11-26T05:04:23.928Z,5.90
2018-11-26T05:06:52.666Z,5.90
2018-11-26T05:09:20.965Z,5.90
2018-11-26T05:11:49.319Z,5.90
2018-11-26T05:14:17.684Z,5.90
2018-11-26T05:16:46.053Z,5.90
2018-11-26T05:19:14.365Z,5.90
2018-11-26T05:21:43.836Z,5.90
2018-11-26T05:24:12.149Z,5.90
2018-11-26T05:26:40.456Z,5.90
2018-11-26T05:29:09.500Z,5.90
2018-11-26T05:31:38.484Z,6.00
2018-11-26T05:34:06.784Z,6.00
2018-11-26T05:36:35.125Z,6.00
2018-11-26T05:39:03.571Z,5.90
2018-11-26T05:41:31.885Z,6.00
2018-11-26T05:44:00.639Z,6.00
2018-11-26T05:46:28.952Z,6.00
2018-11-26T05:48:57.273Z,6.00
2018-11-26T05:51:26.376Z,6.00
2018-11-26T05:53:54.928Z,6.00
2018-11-26T05:56:23.216Z,6.00
2018-11-26T05:58:51.819Z,6.00
2018-11-26T06:01:22.540Z,6.00
2018-11-26T06:03:50.844Z,6.00
2018-11-26T06:06:19.164Z,6.00
2018-11-26T06:08:47.465Z,6.00
2018-11-26T06:11:15.759Z,6.00
2018-11-26T06:13:44.864Z,6.00
2018-11-26T06:16:13.169Z,6.00
2018-11-26T06:18:42.668Z,6.00
2018-11-26T06:21:11.532Z,6.00
2018-11-26T06:23:39.955Z,6.10
2018-11-26T06:26:08.261Z,6.00
2018-11-26T06:28:37.124Z,6.10
2018-11-26T06:31:06.682Z,6.10
2018-11-26T06:33:35.673Z,6.10
2018-11-26T06:36:13.680Z,6.10
2018-11-26T06:38:46.064Z,6.10
2018-11-26T06:41:16.544Z,6.10
2018-11-26T06:43:44.949Z,6.10
2018-11-26T06:46:13.463Z,6.10
2018-11-26T06:48:42.815Z,6.10
2018-11-26T06:51:11.286Z,6.10
2018-11-26T06:53:39.697Z,6.10
2018-11-26T06:56:08.149Z,6.10
2018-11-26T06:58:36.625Z,6.10
2018-11-26T07:01:05.134Z,6.10
2018-11-26T07:03:33.594Z,6.10
2018-11-26T07:06:01.996Z,6.10
2018-11-26T07:08:30.443Z,6.10
2018-11-26T07:10:58.919Z,6.10
2018-11-26T07:13:27.232Z,6.10
2018-11-26T07:15:55.575Z,6.10
2018-11-26T07:18:24.228Z,6.10
2018-11-26T07:20:52.720Z,6.10
2018-11-26T07:23:21.094Z,6.10
2018-11-26T07:25:49.419Z,6.10
2018-11-26T07:28:17.736Z,6.10
2018-11-26T07:30:46.035Z,6.10
2018-11-26T07:33:14.792Z,6.10
2018-11-26T07:35:43.764Z,6.10
2018-11-26T07:38:12.070Z,6.10
2018-11-26T07:40:40.943Z,6.10
2018-11-26T07:43:10.712Z,6.10
2018-11-26T07:45:39.531Z,6.10
2018-11-26T07:48:09.362Z,6.10
2018-11-26T07:50:38.128Z,6.10
2018-11-26T07:53:08.082Z,6.10
2018-11-26T07:55:37.300Z,6.10
2018-11-26T07:58:05.638Z,6.10
2018-11-26T08:00:33.920Z,6.10
2018-11-26T08:03:02.608Z,6.10
2018-11-26T08:05:30.904Z,6.10
2018-11-26T08:07:59.208Z,6.10
2018-11-26T08:10:28.209Z,6.10
2018-11-26T08:12:56.552Z,6.10
2018-11-26T08:15:26.833Z,6.20
2018-11-26T08:17:55.529Z,6.20
2018-11-26T08:20:23.860Z,6.20
2018-11-26T08:22:53.028Z,6.20
2018-11-26T08:25:23.385Z,6.30
2018-11-26T08:27:52.034Z,6.30
2018-11-26T08:30:22.204Z,6.30
2018-11-26T08:32:53.519Z,6.30
2018-11-26T08:35:21.901Z,6.30
2018-11-26T08:37:56.031Z,6.30
2018-11-26T08:40:26.228Z,6.40
2018-11-26T08:43:15.104Z,6.40
2018-11-26T08:45:54.384Z,6.40
2018-11-26T08:48:28.099Z,6.40
2018-11-26T08:50:58.421Z,6.40
2018-11-26T08:53:26.771Z,6.40
2018-11-26T08:55:56.157Z,6.40
2018-11-26T08:58:24.657Z,6.50
2018-11-26T09:00:58.634Z,6.50
2018-11-26T09:03:32.429Z,6.50
2018-11-26T09:06:01.999Z,6.50
2018-11-26T09:08:32.241Z,6.60
2018-11-26T09:11:01.861Z,6.60
2018-11-26T09:13:30.386Z,6.60
2018-11-26T09:15:58.829Z,6.60
2018-11-26T09:18:27.874Z,6.60
2018-11-26T09:20:56.305Z,6.60
2018-11-26T09:23:24.799Z,6.60
2018-11-26T09:25:53.576Z,6.60
2018-11-26T09:28:22.129Z,6.60
2018-11-26T09:30:50.594Z,6.60
2018-11-26T09:33:19.518Z,6.60
2018-11-26T09:35:47.972Z,6.70
2018-11-26T09:38:16.441Z,6.70
2018-11-26T09:40:45.557Z,6.70
2018-11-26T09:43:14.057Z,6.70
2018-11-26T09:45:42.661Z,6.70
2018-11-26T09:48:11.473Z,6.70
2018-11-26T09:50:39.816Z,6.70
2018-11-26T09:53:08.155Z,6.70
2018-11-26T09:55:37.518Z,6.70
2018-11-26T09:58:05.957Z,6.70
2018-11-26T10:00:34.297Z,6.80
2018-11-26T10:03:03.735Z,6.80
2018-11-26T10:05:32.125Z,6.80
2018-11-26T10:08:00.410Z,6.80
2018-11-26T10:10:28.780Z,6.80
2018-11-26T10:12:57.108Z,6.80
2018-11-26T10:15:26.380Z,6.80
2018-11-26T10:17:55.358Z,6.80
2018-11-26T10:20:23.738Z,6.90
2018-11-26T10:22:52.939Z,6.90
2018-11-26T10:25:22.163Z,6.90
2018-11-26T10:27:50.644Z,7.00
2018-11-26T10:30:20.349Z,7.00
2018-11-26T10:32:49.605Z,7.00
2018-11-26T10:35:18.721Z,7.00
2018-11-26T10:37:47.092Z,7.00
2018-11-26T10:40:17.768Z,7.00
2018-11-26T10:42:46.116Z,7.10
2018-11-26T10:45:16.451Z,7.10
2018-11-26T10:47:45.167Z,7.20
2018-11-26T10:50:16.404Z,7.20
2018-11-26T10:52:46.048Z,7.10
2018-11-26T10:55:17.785Z,7.10
2018-11-26T10:57:46.164Z,7.20
2018-11-26T11:00:20.825Z,7.20
2018-11-26T11:02:49.808Z,7.20
2018-11-26T11:05:18.169Z,7.20
2018-11-26T11:07:47.088Z,7.10
2018-11-26T11:10:21.535Z,7.10
2018-11-26T11:12:49.975Z,7.00
2018-11-26T11:15:18.362Z,7.00
2018-11-26T11:17:47.041Z,7.00
2018-11-26T11:20:21.384Z,7.00
2018-11-26T11:22:50.548Z,7.10
2018-11-26T11:25:19.288Z,7.10
2018-11-26T11:27:48.120Z,7.10
2018-11-26T11:30:26.701Z,7.10
2018-11-26T11:32:55.128Z,7.00
2018-11-26T11:35:23.609Z,7.00
2018-11-26T11:37:54.245Z,7.00
2018-11-26T11:40:25.666Z,6.90
2018-11-26T11:42:54.459Z,6.90
2018-11-26T11:45:23.354Z,6.90
2018-11-26T11:47:51.830Z,7.00
2018-11-26T11:50:21.390Z,7.00
2018-11-26T11:52:50.149Z,7.10
2018-11-26T11:55:23.699Z,7.00
2018-11-26T11:57:52.414Z,7.10
2018-11-26T12:00:30.041Z,7.10
2018-11-26T12:02:58.719Z,7.00
2018-11-26T12:05:27.168Z,7.00
2018-11-26T12:07:55.708Z,7.10
2018-11-26T12:10:24.141Z,7.10
2018-11-26T12:12:52.590Z,7.00
2018-11-26T12:15:21.741Z,7.00
2018-11-26T12:17:50.308Z,7.00
2018-11-26T12:20:18.726Z,7.10
2018-11-26T12:22:47.127Z,7.10
2018-11-26T12:25:16.592Z,7.10
2018-11-26T12:27:44.918Z,7.20
2018-11-26T12:30:18.877Z,7.20
2018-11-26T12:32:47.249Z,7.20
2018-11-26T12:35:15.563Z,7.10
2018-11-26T12:37:44.393Z,7.10
2018-11-26T12:40:16.028Z,7.00
2018-11-26T12:42:45.281Z,7.10
2018-11-26T12:45:23.173Z,7.10
2018-11-26T12:47:52.119Z,7.00
2018-11-26T12:50:20.441Z,7.00
2018-11-26T12:52:48.748Z,7.00
2018-11-26T12:55:18.543Z,7.00
2018-11-26T12:57:48.420Z,7.00
2018-11-26T13:00:20.315Z,7.00
2018-11-26T13:02:51.330Z,7.00
2018-11-26T13:05:20.093Z,6.90
2018-11-26T13:07:48.422Z,6.90
2018-11-26T13:10:17.974Z,7.00
2018-11-26T13:12:47.041Z,7.00
2018-11-26T13:15:17.358Z,7.00
2018-11-26T13:17:45.813Z,7.00
2018-11-26T13:20:17.702Z,7.00
2018-11-26T13:22:46.980Z,7.00
2018-11-26T13:25:18.317Z,7.00
2018-11-26T13:27:48.738Z,7.10
2018-11-26T13:30:18.519Z,7.10
2018-11-26T13:32:49.375Z,7.00
2018-11-26T13:35:19.356Z,7.00
2018-11-26T13:37:48.277Z,7.00
2018-11-26T13:40:16.964Z,7.00
2018-11-26T13:42:46.021Z,6.90
2018-11-26T13:45:19.670Z,6.90
2018-11-26T13:47:48.089Z,6.90
2018-11-26T13:50:18.718Z,6.90
2018-11-26T13:52:47.110Z,6.90
2018-11-26T13:55:15.893Z,6.90
2018-11-26T13:57:44.208Z,6.90
2018-11-26T14:00:13.555Z,6.90
2018-11-26T14:02:41.979Z,6.90
2018-11-26T14:05:12.546Z,6.90
2018-11-26T14:07:40.906Z,6.90
2018-11-26T14:10:10.855Z,6.90
2018-11-26T14:12:39.320Z,6.90
2018-11-26T14:15:10.923Z,6.90
2018-11-26T14:17:39.861Z,6.90
2018-11-26T14:20:12.638Z,6.90
2018-11-26T14:22:41.003Z,6.90
2018-11-26T14:25:11.565Z,6.90
2018-11-26T14:27:40.583Z,6.90
2018-11-26T14:30:13.550Z,6.90
2018-11-26T14:32:42.512Z,6.90
2018-11-26T14:35:12.112Z,6.90
2018-11-26T14:37:39.312Z,6.90
2018-11-26T14:40:11.522Z,6.90
2018-11-26T14:42:39.910Z,6.90
2018-11-26T14:45:10.282Z,6.90
2018-11-26T14:47:39.132Z,6.80
2018-11-26T14:50:09.645Z,6.90
2018-11-26T14:52:38.085Z,6.80
2018-11-26T14:55:10.058Z,6.80
2018-11-26T14:57:38.585Z,6.80
2018-11-26T15:00:11.481Z,6.80
2018-11-26T15:02:39.994Z,6.80
2018-11-26T15:05:08.466Z,6.70
2018-11-26T15:07:36.869Z,6.60
2018-11-26T15:10:07.515Z,6.60
2018-11-26T15:12:35.870Z,6.60
2018-11-26T15:15:04.590Z,6.60
2018-11-26T15:17:32.978Z,6.60
2018-11-26T15:20:01.298Z,6.50
2018-11-26T15:22:29.749Z,6.50
2018-11-26T15:24:58.075Z,6.50
2018-11-26T15:27:26.428Z,6.50
2018-11-26T15:29:55.371Z,6.50
2018-11-26T15:32:23.863Z,6.40
2018-11-26T15:34:52.423Z,6.40
2018-11-26T15:37:21.642Z,6.50
2018-11-26T15:39:50.102Z,6.40
2018-11-26T15:42:18.520Z,6.40
2018-11-26T15:44:47.228Z,6.40
2018-11-26T15:47:15.655Z,6.30
2018-11-26T15:49:44.278Z,6.30
2018-11-26T15:52:13.466Z,6.30
2018-11-26T15:54:41.910Z,6.30
2018-11-26T15:57:10.343Z,6.30
2018-11-26T15:59:39.642Z,6.20
2018-11-26T16:02:08.022Z,6.20
2018-11-26T16:04:37.545Z,6.20
2018-11-26T16:07:06.365Z,6.20
2018-11-26T16:09:34.694Z,6.20
2018-11-26T16:12:03.116Z,6.20
2018-11-26T16:14:31.577Z,6.20
2018-11-26T16:16:59.968Z,6.20
2018-11-26T16:19:28.334Z,6.20
2018-11-26T16:21:57.329Z,6.20
2018-11-26T16:24:25.820Z,6.20
2018-11-26T16:26:54.172Z,6.20
2018-11-26T16:29:22.643Z,6.20
2018-11-26T16:31:50.993Z,6.20
2018-11-26T16:34:19.375Z,6.10
2018-11-26T16:36:48.246Z,6.10
2018-11-26T16:39:16.646Z,6.10
2018-11-26T16:41:45.002Z,6.00
2018-11-26T16:44:13.918Z,6.00
2018-11-26T16:46:42.313Z,6.00
2018-11-26T16:49:10.637Z,5.90
2018-11-26T16:51:38.960Z,5.80
2018-11-26T16:54:07.516Z,5.90
2018-11-26T16:56:36.019Z,5.80
2018-11-26T16:59:05.042Z,5.80
2018-11-26T17:01:34.296Z,5.80
2018-11-26T17:04:02.753Z,5.80
2018-11-26T17:06:31.282Z,5.70
2018-11-26T17:08:59.841Z,5.70
2018-11-26T17:11:28.366Z,5.70
2018-11-26T17:13:57.541Z,5.70
2018-11-26T17:16:25.936Z,5.60
2018-11-26T17:18:55.226Z,5.60
2018-11-26T17:21:23.845Z,5.60
2018-11-26T17:23:52.746Z,5.60
2018-11-26T17:26:21.474Z,5.60
2018-11-26T17:28:50.630Z,5.60
2018-11-26T17:31:18.941Z,5.50
2018-11-26T17:33:47.303Z,5.50
2018-11-26T17:36:17.131Z,5.50
2018-11-26T17:38:46.425Z,5.50
2018-11-26T17:41:14.743Z,5.50
2018-11-26T17:43:43.627Z,5.50
2018-11-26T17:46:11.930Z,5.50
2018-11-26T17:48:40.366Z,5.50
2018-11-26T17:51:08.729Z,5.40
2018-11-26T17:53:37.243Z,5.40
2018-11-26T17:56:06.026Z,5.40
2018-11-26T17:58:34.633Z,5.40
2018-11-26T18:01:10.609Z,5.40
2018-11-26T18:03:39.034Z,5.40
2018-11-26T18:06:07.362Z,5.40
2018-11-26T18:08:35.663Z,5.40
2018-11-26T18:11:04.210Z,5.40
2018-11-26T18:13:32.526Z,5.30
2018-11-26T18:16:00.834Z,5.30
2018-11-26T18:18:29.169Z,5.30
2018-11-26T18:20:57.515Z,5.30
2018-11-26T18:23:25.818Z,5.30
2018-11-26T18:25:54.270Z,5.20
2018-11-26T18:28:22.598Z,5.20
2018-11-26T18:30:51.954Z,5.10
2018-11-26T18:33:20.736Z,5.20
2018-11-26T18:35:49.143Z,5.10
2018-11-26T18:38:17.975Z,5.10
2018-11-26T18:40:48.067Z,5.10
2018-11-26T18:43:16.450Z,5.00
2018-11-26T18:45:44.816Z,5.00
2018-11-26T18:48:14.357Z,5.00
2018-11-26T18:50:43.352Z,5.00
2018-11-26T18:53:12.446Z,5.00
2018-11-26T18:55:42.294Z,5.00
2018-11-26T18:58:10.656Z,5.10
2018-11-26T19:00:43.265Z,5.00
2018-11-26T19:03:12.217Z,5.00
2018-11-26T19:05:40.579Z,5.00
2018-11-26T19:08:08.910Z,5.00
2018-11-26T19:10:37.792Z,4.90
2018-11-26T19:13:09.553Z,4.90
2018-11-26T19:15:40.389Z,4.90
2018-11-26T19:18:15.610Z,4.90
2018-11-26T19:20:43.966Z,4.90
2018-11-26T19:23:12.398Z,4.90
2018-11-26T19:25:41.893Z,4.90
2018-11-26T19:28:10.763Z,4.90
2018-11-26T19:30:39.113Z,4.90
2018-11-26T19:33:08.535Z,4.90
2018-11-26T19:35:36.870Z,4.90
2018-11-26T19:38:05.994Z,4.90
2018-11-26T19:40:34.781Z,4.80
2018-11-26T19:43:03.158Z,4.90
2018-11-26T19:45:31.558Z,4.90
2018-11-26T19:47:59.968Z,4.80
2018-11-26T19:50:28.344Z,4.80
2018-11-26T19:52:56.705Z,4.90
2018-11-26T19:55:27.791Z,4.80
2018-11-26T19:57:57.619Z,4.80
2018-11-26T20:00:30.105Z,4.80
2018-11-26T20:03:03.389Z,4.80
2018-11-26T20:05:38.079Z,4.80
2018-11-26T20:08:07.022Z,4.80
2018-11-26T20:10:35.502Z,4.80
2018-11-26T20:13:04.566Z,4.70
2018-11-26T20:15:32.877Z,4.80
2018-11-26T20:18:02.111Z,4.80
2018-11-26T20:20:31.655Z,4.80
2018-11-26T20:22:59.966Z,4.80
2018-11-26T20:25:28.306Z,4.80
2018-11-26T20:27:56.638Z,4.80
2018-11-26T20:30:24.957Z,4.80
2018-11-26T20:32:53.329Z,4.80
2018-11-26T20:35:21.774Z,4.80
2018-11-26T20:37:50.696Z,4.80
2018-11-26T20:40:19.026Z,4.80
2018-11-26T20:42:49.275Z,4.80
2018-11-26T20:45:17.850Z,4.80
2018-11-26T20:47:47.762Z,4.80
2018-11-26T20:50:19.122Z,4.80
2018-11-26T20:52:48.002Z,4.80
2018-11-26T20:55:17.883Z,4.70
2018-11-26T20:57:46.649Z,4.80
2018-11-26T21:00:17.318Z,4.80
2018-11-26T21:02:48.278Z,4.70
2018-11-26T21:05:16.971Z,4.70
2018-11-26T21:07:45.573Z,4.70
2018-11-26T21:10:15.583Z,4.80
2018-11-26T21:12:44.275Z,4.80
2018-11-26T21:15:14.992Z,4.70
2018-11-26T21:17:45.814Z,4.80
2018-11-26T21:20:17.924Z,4.80
2018-11-26T21:22:46.878Z,4.80
2018-11-26T21:25:16.349Z,4.70
2018-11-26T21:27:44.998Z,4.70
2018-11-26T21:30:16.995Z,4.70
2018-11-26T21:32:45.600Z,4.70
2018-11-26T21:35:15.290Z,4.70
2018-11-26T21:37:45.137Z,4.70
2018-11-26T21:40:20.053Z,4.70
2018-11-26T21:42:43.805Z,4.70
2018-11-26T21:45:14.309Z,4.70
2018-11-26T21:47:43.039Z,4.70
2018-11-26T21:50:14.343Z,4.70
2018-11-26T21:52:43.699Z,4.70
2018-11-26T21:55:14.211Z,4.70
2018-11-26T21:57:42.942Z,4.70
2018-11-26T22:00:18.706Z,4.70
2018-11-26T22:02:47.438Z,4.70
2018-11-26T22:05:16.062Z,4.70
2018-11-26T22:07:45.611Z,4.70
2018-11-26T22:10:16.206Z,4.70
2018-11-26T22:12:46.228Z,4.70
2018-11-26T22:15:14.881Z,4.70
2018-11-26T22:17:43.595Z,4.70
2018-11-26T22:20:30.434Z,4.70
2018-11-26T22:22:59.089Z,4.70
2018-11-26T22:25:27.694Z,4.70
2018-11-26T22:27:57.100Z,4.70
2018-11-26T22:30:30.270Z,4.70
2018-11-26T22:32:59.705Z,4.70
2018-11-26T22:35:28.334Z,4.70
2018-11-26T22:37:56.980Z,4.70
2018-11-26T22:40:26.432Z,4.70
2018-11-26T22:42:54.823Z,4.70
2018-11-26T22:45:30.509Z,4.70
2018-11-26T22:48:16.157Z,4.70
2018-11-26T22:50:45.638Z,4.80
2018-11-26T22:53:13.963Z,4.70
2018-11-26T22:55:42.299Z,4.70
2018-11-26T22:58:12.968Z,4.70
2018-11-26T23:00:45.609Z,4.70
2018-11-26T23:03:16.197Z,4.70
2018-11-26T23:05:44.521Z,4.70
2018-11-26T23:08:13.014Z,4.70
2018-11-26T23:10:41.375Z,4.70
2018-11-26T23:13:09.829Z,4.70
2018-11-26T23:15:38.900Z,4.70
2018-11-26T23:18:07.817Z,4.70
2018-11-26T23:20:36.184Z,4.70
2018-11-26T23:23:04.846Z,4.70
2018-11-26T23:25:34.555Z,4.70
2018-11-26T23:28:03.250Z,4.70
2018-11-26T23:30:31.922Z,4.70
2018-11-26T23:33:03.664Z,4.70
2018-11-26T23:35:33.128Z,4.70
2018-11-26T23:38:01.529Z,4.70
2018-11-26T23:40:30.233Z,4.70
2018-11-26T23:42:58.594Z,4.70
2018-11-26T23:45:27.742Z,4.70
2018-11-26T23:47:56.547Z,4.80
2018-11-26T23:50:25.097Z,4.70
2018-11-26T23:52:53.413Z,4.70
2018-11-26T23:55:23.575Z,4.70
2018-11-26T23:57:51.884Z,4.70
